Impacts METAR Board
IDs:

KFLL - Ft Lauderdale-Hollyw, FL, US

Updated at: 0300 UTC 22 Jun 2018
Potential Impact None Slight Moderate High
Time 21/15Z 21/16Z 21/17Z 21/18Z 21/19Z 21/20Z 21/21Z 21/22Z 21/23Z 22/00Z 22/01Z 22/02Z 22/03Z
Temp89 90 92 88 90 90 88 82 83 82 82 82 81
Dewpt78 75 73 77 78 77 76 77 77 77 77 78 77
Altim29.95 29.95 29.95 29.93 29.92 29.91 29.92 29.91 29.92 29.95 29.95 29.96 29.98
VIS10 10 10 10 10 10 10 10 10 10 10 10 10
CIG250 -- 30 35 38 -- 50 -- 250 250 -- -- 250
CoverBKNFEWBKNBKNBKNSCTBKNSCTBKNBKNSCTSCTBKN
FltCatVFRVFRMVFRVFRVFRVFRVFRVFRVFRVFRVFRVFRVFR
WX------------TS------------
WDir0001301501602403203203200320350
WSpd5 0 4 8 12 11 11 7 5 4 0 4 5
WGst-- -- -- -- 18 20 -- -- -- -- -- -- --
Raw hourly METARs
KFLL 211453Z VRB05KT 10SM FEW025 BKN250 32/26 A2995 RMK AO2 SLP142 T03170256 58001
KFLL 211553Z 00000KT 10SM FEW038 FEW065 32/24 A2995 RMK AO2 SLP141 T03220239
KFLL 211653Z VRB04KT 10SM BKN030 BKN250 33/23 A2995 RMK AO2 SLP141 T03330228
KFLL 211753Z 13008KT 10SM BKN035 BKN250 31/25 A2993 RMK AO2 SLP134 T03110250 10333 20278 58008
KFLL 211853Z 15012G18KT 10SM BKN038 BKN060 BKN250 32/26 A2992 RMK AO2 LTG DSNT S SLP130 T03220256
KFLL 212001Z 16011G20KT 10SM FEW040 SCT060 32/25 A2991 RMK AO2 LTG DSNT W CB DSNT S SW-NW T03220250
KFLL 212053Z 24011KT 10SM TS FEW027CB BKN050 BKN150 31/24 A2992 RMK AO2 LTG DSNT N AND NW TSB43 SLP129 OCNL LTGICCG NW-N TS NW-N MOV NE T03110244 55001 $
KFLL 212153Z 32007KT 10SM FEW035 FEW070 SCT150 SCT250 28/25 A2991 RMK AO2 LTG DSNT N TSE11 SLP129 CB DSNT N-NE T02780250 $
KFLL 212253Z 32005KT 10SM FEW035 FEW070 SCT200 BKN250 28/25 A2992 RMK AO2 LTG DSNT S SLP132 CB DSNT S SW T02830250 $
KFLL 212353Z 32004KT 10SM FEW030 FEW070 SCT160 BKN250 28/25 A2995 RMK AO2 LTG DSNT S AND SW SLP140 CB DSNT S SW T02780250 10333 20278 53010 $
KFLL 220053Z 00000KT 10SM FEW028 FEW070 SCT160 SCT250 28/25 A2995 RMK AO2 LTG DSNT S SLP141 T02780250 $
KFLL 220153Z 32004KT 10SM FEW028 FEW160 SCT250 28/26 A2996 RMK AO2 LTG DSNT S SLP144 OCNL LTGICCCCACG DSNT S CB DSNT S T02780256 $
KFLL 220253Z 35005KT 10SM FEW024 FEW070 SCT160 BKN250 27/25 A2998 RMK AO2 SLP151 T02720250 53011 $



Page loaded:  03:17 UTC  |   08:17 PM Pacific  |   09:17 PM Mountain  |   10:17 PM Central  |   11:17 PM Eastern

 

ADVISORIES

FORECASTS

FORECASTS

OBSERVATIONS

USER TOOLS

ABOUT US